createdAt,value
2024-04-22T00:00:55.052Z,51
2024-04-22T00:01:55.406Z,51
2024-04-22T00:02:55.416Z,51
2024-04-22T00:03:55.588Z,51
2024-04-22T00:04:55.649Z,51
2024-04-22T00:05:55.743Z,51
2024-04-22T00:06:55.903Z,51
2024-04-22T00:07:56.075Z,51
2024-04-22T00:08:56.168Z,51
2024-04-22T00:09:56.289Z,51
2024-04-22T00:10:56.961Z,51
2024-04-22T00:11:56.492Z,51
2024-04-22T00:12:56.608Z,51
2024-04-22T00:13:56.710Z,51
2024-04-22T00:14:56.816Z,51
2024-04-22T00:15:56.937Z,51
2024-04-22T00:16:57.076Z,51
2024-04-22T00:17:57.224Z,51
2024-04-22T00:18:57.306Z,51
2024-04-22T00:19:57.458Z,51
2024-04-22T00:20:57.938Z,51
2024-04-22T00:21:58.006Z,52
2024-04-22T00:22:58.202Z,52
2024-04-22T00:23:58.331Z,52
2024-04-22T00:24:58.483Z,52
2024-04-22T00:25:58.703Z,52
2024-04-22T00:26:58.780Z,52
2024-04-22T00:27:58.895Z,52
2024-04-22T00:28:59.152Z,52
2024-04-22T00:29:59.319Z,52
2024-04-22T00:30:59.438Z,52
2024-04-22T00:31:59.540Z,52
2024-04-22T00:32:59.746Z,52
2024-04-22T00:33:59.751Z,52
2024-04-22T00:34:59.870Z,52
2024-04-22T00:35:59.982Z,52
2024-04-22T00:37:00.152Z,52
2024-04-22T00:38:00.378Z,52
2024-04-22T00:39:00.565Z,52
2024-04-22T00:40:00.632Z,52
2024-04-22T00:41:00.890Z,52
2024-04-22T00:42:01.119Z,52
2024-04-22T00:43:01.244Z,52
2024-04-22T00:44:01.418Z,52
2024-04-22T00:45:01.474Z,52
2024-04-22T00:46:01.638Z,52
2024-04-22T00:47:01.764Z,52
2024-04-22T00:48:01.930Z,52
2024-04-22T00:49:01.904Z,52
2024-04-22T00:50:02.099Z,52
2024-04-22T00:51:02.245Z,52
2024-04-22T00:52:02.450Z,52
2024-04-22T00:53:02.560Z,52
2024-04-22T00:54:02.650Z,52
2024-04-22T00:55:02.722Z,52
2024-04-22T00:56:02.849Z,52
2024-04-22T00:57:03.439Z,52
2024-04-22T00:58:03.027Z,52
2024-04-22T00:59:03.240Z,52
2024-04-22T01:00:03.406Z,52
2024-04-22T01:01:03.551Z,52
2024-04-22T01:02:03.669Z,52
2024-04-22T01:03:03.791Z,52
2024-04-22T01:04:03.981Z,52
2024-04-22T01:05:04.162Z,52
2024-04-22T01:06:04.171Z,52
2024-04-22T01:07:04.328Z,52
2024-04-22T01:08:04.373Z,52
2024-04-22T01:09:04.538Z,52
2024-04-22T01:10:04.864Z,52
2024-04-22T01:11:04.958Z,52
2024-04-22T01:12:05.140Z,52
2024-04-22T01:13:05.215Z,52
2024-04-22T01:14:05.328Z,52
2024-04-22T01:15:05.957Z,52
2024-04-22T01:16:05.566Z,52
2024-04-22T01:17:05.719Z,52
2024-04-22T01:18:05.854Z,52
2024-04-22T01:19:05.895Z,52
2024-04-22T01:20:06.033Z,52
2024-04-22T01:21:06.145Z,52
2024-04-22T01:22:06.311Z,52
2024-04-22T01:23:06.368Z,52
2024-04-22T01:24:06.491Z,52
2024-04-22T01:25:06.751Z,52
2024-04-22T01:26:06.908Z,52
2024-04-22T01:27:07.009Z,52
2024-04-22T01:28:07.287Z,52
2024-04-22T01:29:07.268Z,53
2024-04-22T01:30:07.378Z,53
2024-04-22T01:31:07.560Z,53
2024-04-22T01:32:07.613Z,53
2024-04-22T01:33:07.761Z,53
2024-04-22T01:34:07.959Z,53
2024-04-22T01:35:08.127Z,53
2024-04-22T01:36:08.303Z,53
2024-04-22T01:37:08.374Z,53
2024-04-22T01:38:08.513Z,53
2024-04-22T01:39:08.615Z,53
2024-04-22T01:40:08.725Z,53
2024-04-22T01:41:08.825Z,53
2024-04-22T01:42:08.934Z,53
2024-04-22T01:43:09.140Z,53
2024-04-22T01:44:09.190Z,53
2024-04-22T01:45:09.265Z,53
2024-04-22T01:46:09.455Z,53
2024-04-22T01:47:09.505Z,53
2024-04-22T01:48:09.646Z,53
2024-04-22T01:49:09.814Z,53
2024-04-22T01:50:09.863Z,53
2024-04-22T01:51:09.967Z,53
2024-04-22T01:52:10.245Z,53
2024-04-22T01:53:10.538Z,53
2024-04-22T01:54:10.657Z,53
2024-04-22T01:55:11.351Z,53
2024-04-22T01:56:10.918Z,53
2024-04-22T01:57:10.975Z,53
2024-04-22T01:58:11.266Z,53
2024-04-22T01:59:11.299Z,53
2024-04-22T02:00:11.475Z,53
2024-04-22T02:01:12.426Z,53
2024-04-22T02:02:11.842Z,53
2024-04-22T02:03:11.887Z,53
2024-04-22T02:04:12.041Z,53
2024-04-22T02:05:12.677Z,53
2024-04-22T02:06:12.365Z,53
2024-04-22T02:07:12.487Z,53
2024-04-22T02:08:12.578Z,53
2024-04-22T02:09:12.740Z,53
2024-04-22T02:10:17.449Z,53
2024-04-22T02:11:13.042Z,53
2024-04-22T02:12:13.122Z,53
2024-04-22T02:13:13.302Z,53
2024-04-22T02:14:14.466Z,53
2024-04-22T02:15:13.561Z,53
2024-04-22T02:16:13.842Z,53
2024-04-22T02:17:13.926Z,53
2024-04-22T02:18:14.098Z,54
2024-04-22T02:19:14.277Z,54
2024-04-22T02:20:14.384Z,54
2024-04-22T02:21:14.492Z,54
2024-04-22T02:22:14.659Z,54
2024-04-22T02:23:14.792Z,54
2024-04-22T02:24:14.952Z,54
2024-04-22T02:25:15.095Z,54
2024-04-22T02:26:15.154Z,54
2024-04-22T02:27:15.326Z,54
2024-04-22T02:28:15.541Z,54
2024-04-22T02:29:15.683Z,54
2024-04-22T02:30:15.796Z,54
2024-04-22T02:31:16.026Z,54
2024-04-22T02:32:16.395Z,54
2024-04-22T02:33:16.735Z,54
2024-04-22T02:34:16.771Z,54
2024-04-22T02:35:16.862Z,54
2024-04-22T02:36:17.059Z,54
2024-04-22T02:37:17.178Z,54
2024-04-22T02:38:17.276Z,54
2024-04-22T02:39:17.388Z,54
2024-04-22T02:40:17.496Z,54
2024-04-22T02:41:17.666Z,54
2024-04-22T02:42:17.720Z,54
2024-04-22T02:43:17.832Z,54
2024-04-22T02:44:18.034Z,53
2024-04-22T02:45:18.208Z,53
2024-04-22T02:46:18.386Z,54
2024-04-22T02:47:18.465Z,54
2024-04-22T02:48:18.676Z,54
2024-04-22T02:49:18.719Z,54
2024-04-22T02:50:18.803Z,54
2024-04-22T02:51:19.052Z,54
2024-04-22T02:52:19.082Z,54
2024-04-22T02:53:19.163Z,54
2024-04-22T02:54:19.579Z,54
2024-04-22T02:55:19.707Z,54
2024-04-22T02:56:19.848Z,54
2024-04-22T02:57:20.210Z,54
2024-04-22T02:58:20.343Z,54
2024-04-22T02:59:20.638Z,54
2024-04-22T03:00:20.792Z,54
2024-04-22T03:01:20.934Z,54
2024-04-22T03:02:21.080Z,54
2024-04-22T03:03:21.211Z,54
2024-04-22T03:04:21.284Z,54
2024-04-22T03:05:21.395Z,54
2024-04-22T03:06:21.964Z,54
2024-04-22T03:07:21.677Z,54
2024-04-22T03:08:21.972Z,54
2024-04-22T03:09:22.494Z,54
2024-04-22T03:10:22.045Z,54
2024-04-22T03:11:22.258Z,54
2024-04-22T03:12:22.358Z,54
2024-04-22T03:13:22.497Z,54
2024-04-22T03:14:22.570Z,54
2024-04-22T03:15:22.682Z,54
2024-04-22T03:16:22.824Z,54
2024-04-22T03:17:23.014Z,54
2024-04-22T03:18:23.184Z,54
2024-04-22T03:19:23.276Z,54
2024-04-22T03:20:24.738Z,54
2024-04-22T03:21:23.643Z,54
2024-04-22T03:22:23.800Z,54
2024-04-22T03:23:23.860Z,54
2024-04-22T03:24:23.916Z,54
2024-04-22T03:25:24.033Z,54
2024-04-22T03:26:24.133Z,54
2024-04-22T03:27:24.253Z,54
2024-04-22T03:28:24.372Z,54
2024-04-22T03:29:24.477Z,54
2024-04-22T03:30:24.621Z,54
2024-04-22T03:31:24.815Z,54
2024-04-22T03:32:25.034Z,54
2024-04-22T03:33:25.046Z,54
2024-04-22T03:34:25.174Z,54
2024-04-22T03:35:25.593Z,54
2024-04-22T03:36:25.678Z,54
2024-04-22T03:37:25.835Z,54
2024-04-22T03:38:25.900Z,54
2024-04-22T03:39:26.062Z,54
2024-04-22T03:40:26.235Z,54
2024-04-22T03:41:26.433Z,55
2024-04-22T03:42:26.539Z,55
2024-04-22T03:43:26.731Z,55
2024-04-22T03:44:26.824Z,55
2024-04-22T03:45:26.921Z,55
2024-04-22T03:46:27.299Z,55
2024-04-22T03:47:27.520Z,55
2024-04-22T03:48:27.648Z,55
2024-04-22T03:49:27.790Z,55
2024-04-22T03:50:27.934Z,55
2024-04-22T03:51:28.093Z,55
2024-04-22T03:52:28.233Z,55
2024-04-22T03:53:28.299Z,55
2024-04-22T03:54:28.417Z,55
2024-04-22T03:55:28.644Z,55
2024-04-22T03:56:28.626Z,55
2024-04-22T03:57:28.850Z,55
2024-04-22T03:58:28.988Z,55
2024-04-22T03:59:29.071Z,55
2024-04-22T04:00:29.430Z,55
2024-04-22T04:01:29.619Z,55
2024-04-22T04:02:29.687Z,55
2024-04-22T04:03:29.826Z,55
2024-04-22T04:04:30.081Z,56
2024-04-22T04:05:30.166Z,56
2024-04-22T04:06:30.390Z,56
2024-04-22T04:07:30.488Z,56
2024-04-22T04:08:30.662Z,56
2024-04-22T04:09:30.772Z,56
2024-04-22T04:10:30.891Z,56
2024-04-22T04:11:33.535Z,56
2024-04-22T04:12:31.181Z,56
2024-04-22T04:13:31.417Z,56
2024-04-22T04:14:31.549Z,56
2024-04-22T04:15:31.558Z,56
2024-04-22T04:16:31.649Z,56
2024-04-22T04:17:31.828Z,56
2024-04-22T04:18:31.934Z,56
2024-04-22T04:19:32.045Z,56
2024-04-22T04:20:32.340Z,56
2024-04-22T04:21:32.310Z,56
2024-04-22T04:22:32.550Z,56
2024-04-22T04:23:32.994Z,56
2024-04-22T04:24:33.059Z,56
2024-04-22T04:25:33.626Z,56
2024-04-22T04:26:33.617Z,56
2024-04-22T04:27:36.297Z,56
2024-04-22T04:28:33.922Z,56
2024-04-22T04:29:33.998Z,56
2024-04-22T04:30:34.222Z,56
2024-04-22T04:31:34.345Z,56
2024-04-22T04:32:34.565Z,56
2024-04-22T04:33:34.490Z,56
2024-04-22T04:34:34.645Z,56
2024-04-22T04:35:34.726Z,56
2024-04-22T04:36:34.814Z,56
2024-04-22T04:37:35.005Z,56
2024-04-22T04:38:35.032Z,56
2024-04-22T04:39:35.608Z,56
2024-04-22T04:40:35.462Z,56
2024-04-22T04:41:35.557Z,56
2024-04-22T04:42:35.667Z,56
2024-04-22T04:43:36.012Z,56
2024-04-22T04:44:36.084Z,56
2024-04-22T04:45:36.275Z,56
2024-04-22T04:46:36.416Z,56
2024-04-22T04:47:36.528Z,56
2024-04-22T04:48:36.631Z,56
2024-04-22T04:49:36.737Z,56
2024-04-22T04:50:36.871Z,56
2024-04-22T04:51:37.112Z,56
2024-04-22T04:52:37.246Z,56
2024-04-22T04:53:37.583Z,56
2024-04-22T04:54:38.002Z,56
2024-04-22T04:55:38.081Z,56
2024-04-22T04:56:38.161Z,56
2024-04-22T04:57:38.389Z,56
2024-04-22T04:58:38.674Z,56
2024-04-22T04:59:38.641Z,56
2024-04-22T05:00:38.729Z,56
2024-04-22T05:01:39.166Z,56
2024-04-22T05:02:39.336Z,56
2024-04-22T05:03:39.616Z,56
2024-04-22T05:04:39.746Z,56
2024-04-22T05:05:40.069Z,57
2024-04-22T05:06:39.911Z,57
2024-04-22T05:07:40.124Z,57
2024-04-22T05:08:40.187Z,57
2024-04-22T05:09:40.351Z,57
2024-04-22T05:10:40.602Z,57
2024-04-22T05:11:40.542Z,57
2024-04-22T05:12:40.636Z,57
2024-04-22T05:13:40.872Z,57
2024-04-22T05:14:40.987Z,57
2024-04-22T05:15:41.058Z,57
2024-04-22T05:16:41.215Z,57
2024-04-22T05:17:41.399Z,57
2024-04-22T05:18:43.967Z,57
2024-04-22T05:19:41.662Z,57
2024-04-22T05:20:41.816Z,57
2024-04-22T05:21:41.969Z,57
2024-04-22T05:22:42.184Z,57
2024-04-22T05:23:42.229Z,57
2024-04-22T05:24:42.337Z,57
2024-04-22T05:25:42.477Z,57
2024-04-22T05:26:42.544Z,57
2024-04-22T05:27:42.659Z,57
2024-04-22T05:28:42.846Z,57
2024-04-22T05:29:42.930Z,57
2024-04-22T05:30:43.099Z,57
2024-04-22T05:31:43.415Z,57
2024-04-22T05:32:43.566Z,57
2024-04-22T05:33:43.723Z,57
2024-04-22T05:34:43.878Z,57
2024-04-22T05:35:44.055Z,57
2024-04-22T05:36:44.201Z,57
2024-04-22T05:37:44.443Z,57
2024-04-22T05:38:44.639Z,57
2024-04-22T05:39:46.720Z,57
2024-04-22T05:40:44.808Z,57
2024-04-22T05:41:45.010Z,57
2024-04-22T05:42:45.181Z,57
2024-04-22T05:43:45.330Z,57
2024-04-22T05:44:45.441Z,57
2024-04-22T05:45:45.544Z,57
2024-04-22T05:46:46.020Z,57
2024-04-22T05:47:46.050Z,57
2024-04-22T05:48:46.078Z,57
2024-04-22T05:49:46.372Z,57
2024-04-22T05:50:46.451Z,57
2024-04-22T05:51:46.558Z,57
2024-04-22T05:52:46.771Z,57
2024-04-22T05:53:46.834Z,58
2024-04-22T05:54:46.989Z,58
2024-04-22T05:55:47.128Z,58
2024-04-22T05:56:47.198Z,58
2024-04-22T05:57:49.011Z,58
2024-04-22T05:58:47.385Z,58
2024-04-22T05:59:47.523Z,58
2024-04-22T06:00:47.761Z,58
2024-04-22T06:01:47.890Z,58
2024-04-22T06:02:47.985Z,58
2024-04-22T06:03:48.158Z,58
2024-04-22T06:04:48.262Z,58
2024-04-22T06:05:48.997Z,58
2024-04-22T06:06:48.448Z,58
2024-04-22T06:07:48.607Z,58
2024-04-22T06:08:48.658Z,58
2024-04-22T06:09:48.822Z,58
2024-04-22T06:10:49.400Z,58
2024-04-22T06:11:53.536Z,58
2024-04-22T06:12:49.244Z,58
2024-04-22T06:13:49.373Z,58
2024-04-22T06:14:49.529Z,58
2024-04-22T06:15:49.641Z,58
2024-04-22T06:16:49.835Z,58
2024-04-22T06:17:50.010Z,58
2024-04-22T06:18:50.196Z,58
2024-04-22T06:19:50.355Z,58
2024-04-22T06:20:50.586Z,58
2024-04-22T06:21:50.525Z,58
2024-04-22T06:22:50.780Z,58
2024-04-22T06:23:50.898Z,58
2024-04-22T06:24:51.002Z,58
2024-04-22T06:25:51.276Z,58
2024-04-22T06:26:51.226Z,58
2024-04-22T06:27:51.384Z,58
2024-04-22T06:28:51.535Z,58
2024-04-22T06:29:51.891Z,58
2024-04-22T06:30:51.713Z,58
2024-04-22T06:31:52.054Z,58
2024-04-22T06:32:51.993Z,58
2024-04-22T06:33:52.082Z,58
2024-04-22T06:34:52.220Z,58
2024-04-22T06:35:52.412Z,58
2024-04-22T06:36:52.410Z,58
2024-04-22T06:37:52.617Z,58
2024-04-22T06:38:52.991Z,58
2024-04-22T06:39:53.091Z,58
2024-04-22T06:40:53.166Z,58
2024-04-22T06:41:53.379Z,58
2024-04-22T06:42:53.469Z,58
2024-04-22T06:43:53.598Z,58
2024-04-22T06:44:53.681Z,58
2024-04-22T06:45:53.807Z,58
2024-04-22T06:46:54.073Z,58
2024-04-22T06:47:54.181Z,58
2024-04-22T06:48:54.232Z,58
2024-04-22T06:49:54.362Z,58
2024-04-22T06:50:54.498Z,58
2024-04-22T06:51:54.659Z,58
2024-04-22T06:52:54.795Z,58
2024-04-22T06:53:54.973Z,58
2024-04-22T06:54:55.090Z,58
2024-04-22T06:55:55.256Z,58
2024-04-22T06:56:55.362Z,58
2024-04-22T06:57:55.487Z,58
2024-04-22T06:58:56.029Z,58
2024-04-22T06:59:55.730Z,58
2024-04-22T07:00:55.947Z,58
2024-04-22T07:01:56.101Z,58
2024-04-22T07:02:56.261Z,58
2024-04-22T07:03:56.414Z,58
2024-04-22T07:04:56.735Z,58
2024-04-22T07:05:56.689Z,58
2024-04-22T07:06:56.797Z,58
2024-04-22T07:07:57.072Z,58
2024-04-22T07:08:57.283Z,58
2024-04-22T07:09:57.507Z,58
2024-04-22T07:10:57.665Z,58
2024-04-22T07:11:57.753Z,58
2024-04-22T07:12:57.966Z,58
2024-04-22T07:13:58.239Z,58
2024-04-22T07:14:58.168Z,58
2024-04-22T07:15:58.350Z,58
2024-04-22T07:16:58.635Z,58
2024-04-22T07:17:58.689Z,58
2024-04-22T07:18:58.774Z,58
2024-04-22T07:19:58.890Z,58
2024-04-22T07:20:58.945Z,58
2024-04-22T07:21:59.099Z,58
2024-04-22T07:22:59.221Z,58
2024-04-22T07:23:59.255Z,58
2024-04-22T07:25:03.275Z,58
2024-04-22T07:25:59.582Z,58
2024-04-22T07:27:00.975Z,58
2024-04-22T07:28:00.988Z,58
2024-04-22T07:28:59.961Z,57
2024-04-22T07:30:00.098Z,57
2024-04-22T07:31:00.204Z,57
2024-04-22T07:32:00.287Z,57
2024-04-22T07:33:00.472Z,57
2024-04-22T07:34:00.511Z,57
2024-04-22T07:35:00.688Z,57
2024-04-22T07:36:00.920Z,57
2024-04-22T07:37:01.152Z,57
2024-04-22T07:38:01.202Z,57
2024-04-22T07:39:01.376Z,57
2024-04-22T07:40:01.480Z,57
2024-04-22T07:41:01.576Z,57
2024-04-22T07:42:01.705Z,57
2024-04-22T07:43:01.892Z,57
2024-04-22T07:44:01.958Z,57
2024-04-22T07:45:02.065Z,57
2024-04-22T07:46:02.184Z,57
2024-04-22T07:47:02.307Z,57
2024-04-22T07:48:02.554Z,58
2024-04-22T07:49:02.538Z,58
2024-04-22T07:50:02.655Z,58
2024-04-22T07:51:02.770Z,58
2024-04-22T07:52:03.387Z,58
2024-04-22T07:53:03.292Z,58
2024-04-22T07:54:03.403Z,58
2024-04-22T07:55:03.611Z,58
2024-04-22T07:56:03.713Z,58
2024-04-22T07:57:03.832Z,58
2024-04-22T07:58:04.290Z,58
2024-04-22T07:59:04.392Z,58
2024-04-22T08:00:04.520Z,58
2024-04-22T08:01:04.650Z,58
2024-04-22T08:02:05.050Z,57
2024-04-22T08:03:05.281Z,57
2024-04-22T08:04:05.352Z,57
2024-04-22T08:05:05.509Z,57
2024-04-22T08:06:05.459Z,57
2024-04-22T08:07:05.947Z,57
2024-04-22T08:08:06.464Z,57
2024-04-22T08:09:07.033Z,57
2024-04-22T08:10:07.186Z,57
2024-04-22T08:11:07.454Z,57
2024-04-22T08:12:07.354Z,57
2024-04-22T08:13:07.410Z,57
2024-04-22T08:14:07.459Z,57
2024-04-22T08:15:07.449Z,57
2024-04-22T08:16:07.963Z,57
2024-04-22T08:17:08.562Z,57
2024-04-22T08:18:09.004Z,57
2024-04-22T08:19:08.949Z,57
2024-04-22T08:20:08.941Z,57
2024-04-22T08:21:09.425Z,57
2024-04-22T08:22:09.976Z,56
2024-04-22T08:23:09.959Z,56
2024-04-22T08:24:09.946Z,56
2024-04-22T08:25:10.652Z,56
2024-04-22T08:26:10.956Z,56
2024-04-22T08:27:11.481Z,56
2024-04-22T08:28:12.020Z,56
2024-04-22T08:29:12.489Z,56
2024-04-22T08:30:12.995Z,56
2024-04-22T08:31:13.523Z,56
2024-04-22T08:32:14.056Z,56
2024-04-22T08:33:14.572Z,56
2024-04-22T08:34:15.084Z,55
2024-04-22T08:35:15.587Z,55
2024-04-22T08:36:16.031Z,55
2024-04-22T08:37:16.591Z,55
2024-04-22T08:38:16.534Z,55
2024-04-22T08:39:16.651Z,54
2024-04-22T08:40:19.959Z,54
2024-04-22T08:41:17.142Z,54
2024-04-22T08:42:17.222Z,54
2024-04-22T08:43:17.251Z,54
2024-04-22T08:44:17.283Z,54
2024-04-22T08:45:17.277Z,54
2024-04-22T08:46:17.803Z,54
2024-04-22T08:52:36.945Z,54
2024-04-22T08:53:33.513Z,54
2024-04-22T08:54:33.573Z,54
2024-04-22T08:55:33.751Z,53
2024-04-22T08:56:33.885Z,53
2024-04-22T08:57:33.986Z,53
2024-04-22T08:58:34.175Z,52
2024-04-22T08:59:39.703Z,52
2024-04-22T09:00:34.422Z,52
2024-04-22T09:01:34.485Z,52
2024-04-22T09:02:34.693Z,52
2024-04-22T09:03:34.680Z,52
2024-04-22T09:04:35.020Z,52
2024-04-22T09:05:35.169Z,52
2024-04-22T09:06:35.162Z,52
2024-04-22T09:07:35.537Z,52
2024-04-22T09:08:35.520Z,52
2024-04-22T09:09:41.610Z,52
2024-04-22T09:10:50.063Z,52
2024-04-22T09:11:46.723Z,52
2024-04-22T09:12:36.235Z,52
2024-04-22T09:13:36.345Z,52
2024-04-22T09:14:37.052Z,52
2024-04-22T09:15:36.800Z,52
2024-04-22T09:16:37.049Z,52
2024-04-22T09:17:37.206Z,52
2024-04-22T09:18:37.362Z,52
2024-04-22T09:19:37.606Z,52
2024-04-22T09:20:37.759Z,52
2024-04-22T09:21:37.867Z,51
2024-04-22T09:22:38.264Z,51
2024-04-22T09:23:38.339Z,51
2024-04-22T09:24:38.477Z,51
2024-04-22T09:25:38.573Z,51
2024-04-22T09:26:38.717Z,51
2024-04-22T09:27:38.918Z,50
2024-04-22T09:28:39.269Z,50
2024-04-22T09:29:39.089Z,50
2024-04-22T09:30:39.200Z,50
2024-04-22T09:31:39.644Z,50
2024-04-22T09:32:39.657Z,50
2024-04-22T09:33:39.902Z,50
2024-04-22T09:34:39.886Z,50
2024-04-22T09:35:40.125Z,50
2024-04-22T09:36:40.119Z,50
2024-04-22T09:37:40.122Z,50
2024-04-22T09:38:45.654Z,50
2024-04-22T09:39:40.285Z,49
2024-04-22T09:40:40.492Z,49
2024-04-22T09:41:40.630Z,49
2024-04-22T09:42:40.963Z,49
2024-04-22T09:43:42.367Z,49
2024-04-22T09:44:41.397Z,49
2024-04-22T09:45:41.712Z,49
2024-04-22T09:46:41.857Z,49
2024-04-22T09:47:42.197Z,49
2024-04-22T09:48:42.167Z,49
2024-04-22T09:49:42.585Z,49
2024-04-22T09:50:45.241Z,48
2024-04-22T09:51:42.727Z,48
2024-04-22T09:52:42.833Z,48
2024-04-22T09:53:43.097Z,48
2024-04-22T09:54:43.104Z,48
2024-04-22T09:55:43.391Z,48
2024-04-22T09:56:46.215Z,48
2024-04-22T09:57:43.816Z,48
2024-04-22T09:58:44.012Z,48
2024-04-22T09:59:44.181Z,47
2024-04-22T10:00:44.275Z,47
2024-04-22T10:01:44.648Z,47
2024-04-22T10:02:44.947Z,47
2024-04-22T10:03:44.826Z,46
2024-04-22T10:04:45.051Z,46
2024-04-22T10:05:45.455Z,46
2024-04-22T10:06:45.473Z,46
2024-04-22T10:07:45.553Z,46
2024-04-22T10:08:45.943Z,46
2024-04-22T10:09:46.039Z,46
2024-04-22T10:10:46.344Z,46
2024-04-22T10:11:46.435Z,46
2024-04-22T10:12:46.411Z,46
2024-04-22T10:13:46.555Z,46
2024-04-22T10:14:46.665Z,46
2024-04-22T10:15:46.753Z,46
2024-04-22T10:16:46.915Z,46
2024-04-22T10:17:47.314Z,46
2024-04-22T10:18:47.318Z,46
2024-04-22T10:19:47.426Z,46
2024-04-22T10:20:47.449Z,46
2024-04-22T10:21:47.566Z,46
2024-04-22T10:22:47.746Z,46
2024-04-22T10:23:47.828Z,46
2024-04-22T10:24:50.379Z,46
2024-04-22T10:25:48.151Z,46
2024-04-22T10:26:52.748Z,46
2024-04-22T10:27:48.218Z,46
2024-04-22T10:28:48.388Z,46
2024-04-22T10:29:48.379Z,46
2024-04-22T10:30:48.542Z,46
2024-04-22T10:31:48.667Z,46
2024-04-22T10:32:48.780Z,46
2024-04-22T10:33:48.929Z,46
2024-04-22T10:34:49.119Z,46
2024-04-22T10:35:49.348Z,46
2024-04-22T10:36:51.738Z,45
2024-04-22T10:37:49.463Z,45
2024-04-22T10:38:49.562Z,45
2024-04-22T10:39:49.781Z,45
2024-04-22T10:40:49.927Z,45
2024-04-22T10:41:49.987Z,45
2024-04-22T10:42:51.620Z,44
2024-04-22T10:43:50.269Z,44
2024-04-22T10:44:50.329Z,44
2024-04-22T10:45:50.369Z,44
2024-04-22T10:46:50.505Z,44
2024-04-22T10:48:00.867Z,44
2024-04-22T10:48:52.335Z,44
2024-04-22T10:49:51.272Z,44
2024-04-22T10:50:51.333Z,44
2024-04-22T10:51:51.433Z,44
2024-04-22T10:52:51.657Z,43
2024-04-22T10:53:51.708Z,43
2024-04-22T10:54:53.316Z,43
2024-04-22T10:55:52.025Z,43
2024-04-22T10:56:52.081Z,43
2024-04-22T10:57:52.400Z,43
2024-04-22T10:58:52.531Z,43
2024-04-22T10:59:52.612Z,43
2024-04-22T11:00:52.802Z,43
2024-04-22T11:01:52.988Z,43
2024-04-22T11:02:53.107Z,43
2024-04-22T11:03:53.061Z,43
2024-04-22T11:04:53.168Z,43
2024-04-22T11:05:53.387Z,43
2024-04-22T11:06:53.476Z,43
2024-04-22T11:07:53.624Z,43
2024-04-22T11:08:53.639Z,43
2024-04-22T11:09:53.757Z,43
2024-04-22T11:10:53.945Z,43
2024-04-22T11:11:54.127Z,43
2024-04-22T11:12:54.177Z,43
2024-04-22T11:13:54.437Z,43
2024-04-22T11:14:54.549Z,43
2024-04-22T11:15:54.979Z,43
2024-04-22T11:16:55.210Z,43
2024-04-22T11:17:55.296Z,43
2024-04-22T11:21:10.766Z,43
2024-04-22T11:22:10.982Z,43
2024-04-22T11:23:11.092Z,43
2024-04-22T11:24:11.200Z,43
2024-04-22T11:25:11.358Z,43
2024-04-22T11:26:11.657Z,42
2024-04-22T11:27:11.772Z,42
2024-04-22T11:28:11.883Z,42
2024-04-22T11:29:11.995Z,42
2024-04-22T11:30:12.415Z,42
2024-04-22T11:31:12.648Z,42
2024-04-22T11:32:13.016Z,42
2024-04-22T11:33:13.178Z,42
2024-04-22T11:34:13.273Z,42
2024-04-22T11:35:13.361Z,42
2024-04-22T11:36:13.728Z,41
2024-04-22T11:37:13.841Z,41
2024-04-22T11:38:14.102Z,41
2024-04-22T11:39:14.217Z,41
2024-04-22T11:40:14.376Z,41
2024-04-22T11:41:14.463Z,41
2024-04-22T11:42:14.487Z,41
2024-04-22T11:43:14.645Z,41
2024-04-22T11:44:14.694Z,41
2024-04-22T11:45:14.910Z,41
2024-04-22T11:46:14.994Z,41
2024-04-22T11:47:15.110Z,41
2024-04-22T11:48:15.204Z,41
2024-04-22T11:49:15.309Z,41
2024-04-22T11:50:15.454Z,41
2024-04-22T11:51:15.671Z,41
2024-04-22T11:52:15.800Z,41
2024-04-22T11:53:20.650Z,41
2024-04-22T11:54:16.191Z,41
2024-04-22T11:55:16.423Z,41
2024-04-22T11:56:16.436Z,41
2024-04-22T11:57:16.691Z,41
2024-04-22T11:58:16.817Z,41
2024-04-22T11:59:17.662Z,41
2024-04-22T12:00:17.358Z,41
2024-04-22T12:01:17.459Z,41
2024-04-22T12:02:17.527Z,41
2024-04-22T12:03:18.309Z,41
2024-04-22T12:04:17.759Z,41
2024-04-22T12:05:17.928Z,41
2024-04-22T12:06:17.918Z,41
2024-04-22T12:07:18.090Z,41
2024-04-22T12:08:18.264Z,41
2024-04-22T12:09:18.341Z,41
2024-04-22T12:10:18.572Z,41
2024-04-22T12:11:18.697Z,41
2024-04-22T12:12:18.880Z,41
2024-04-22T12:13:19.245Z,41
2024-04-22T12:14:19.356Z,41
2024-04-22T12:15:19.820Z,41
2024-04-22T12:16:19.621Z,41
2024-04-22T12:17:19.710Z,41
2024-04-22T12:18:19.971Z,41
2024-04-22T12:19:20.175Z,41
2024-04-22T12:20:20.301Z,41
2024-04-22T12:21:20.409Z,41
2024-04-22T12:22:20.646Z,41
2024-04-22T12:23:20.631Z,40
2024-04-22T12:24:20.747Z,41
2024-04-22T12:25:20.904Z,41
2024-04-22T12:26:20.969Z,41
2024-04-22T12:27:21.317Z,41
2024-04-22T12:28:22.095Z,41
2024-04-22T12:29:21.543Z,40
2024-04-22T12:30:21.800Z,40
2024-04-22T12:31:21.997Z,40
2024-04-22T12:32:22.137Z,40
2024-04-22T12:33:22.389Z,40
2024-04-22T12:34:22.476Z,40
2024-04-22T12:35:22.550Z,40
2024-04-22T12:36:22.707Z,40
2024-04-22T12:37:22.788Z,40
2024-04-22T12:38:22.979Z,40
2024-04-22T12:39:23.085Z,40
2024-04-22T12:40:23.505Z,40
2024-04-22T12:41:23.571Z,40
2024-04-22T12:42:23.720Z,40
2024-04-22T12:43:24.153Z,40
2024-04-22T12:44:24.046Z,40
2024-04-22T12:45:24.160Z,40
2024-04-22T12:46:24.471Z,40
2024-04-22T12:47:24.678Z,40
2024-04-22T12:48:24.672Z,40
2024-04-22T12:49:24.931Z,40
2024-04-22T12:50:24.995Z,40
2024-04-22T12:51:25.109Z,40
2024-04-22T12:52:25.262Z,40
2024-04-22T12:53:25.326Z,40
2024-04-22T12:54:25.974Z,40
2024-04-22T12:55:25.610Z,40
2024-04-22T12:56:25.701Z,40
2024-04-22T12:57:25.884Z,40
2024-04-22T12:58:26.038Z,40
2024-04-22T12:59:26.085Z,40
2024-04-22T13:00:27.002Z,40
2024-04-22T13:01:26.398Z,40
2024-04-22T13:02:26.462Z,40
2024-04-22T13:03:26.596Z,40
2024-04-22T13:04:26.780Z,40
2024-04-22T13:05:26.985Z,40
2024-04-22T13:06:27.094Z,40
2024-04-22T13:07:27.224Z,40
2024-04-22T13:08:27.366Z,39
2024-04-22T13:09:27.518Z,39
2024-04-22T13:10:27.615Z,39
2024-04-22T13:11:27.950Z,39
2024-04-22T13:12:28.060Z,39
2024-04-22T13:13:28.271Z,39
2024-04-22T13:14:28.282Z,39
2024-04-22T13:15:28.411Z,39
2024-04-22T13:16:28.692Z,39
2024-04-22T13:17:28.799Z,39
2024-04-22T13:18:29.052Z,39
2024-04-22T13:19:29.188Z,40
2024-04-22T13:20:29.300Z,40
2024-04-22T13:21:29.403Z,40
2024-04-22T13:22:29.636Z,40
2024-04-22T13:23:29.710Z,40
2024-04-22T13:24:29.823Z,40
2024-04-22T13:25:29.937Z,40
2024-04-22T13:26:30.058Z,40
2024-04-22T13:27:30.509Z,40
2024-04-22T13:28:30.690Z,40
2024-04-22T13:29:30.900Z,40
2024-04-22T13:30:31.403Z,40
2024-04-22T13:31:36.210Z,41
2024-04-22T13:33:31.540Z,41
2024-04-22T13:34:31.510Z,41
2024-04-22T13:35:31.638Z,41
2024-04-22T13:36:32.031Z,41
2024-04-22T13:37:32.239Z,41
2024-04-22T13:38:32.540Z,41
2024-04-22T13:39:32.511Z,41
2024-04-22T13:40:32.631Z,41
2024-04-22T13:41:32.720Z,41
2024-04-22T13:42:34.792Z,41
2024-04-22T13:43:33.138Z,41
2024-04-22T13:44:33.168Z,41
2024-04-22T13:45:33.300Z,41
2024-04-22T13:46:33.432Z,41
2024-04-22T13:47:33.840Z,41
2024-04-22T13:48:33.800Z,42
2024-04-22T13:49:34.009Z,42
2024-04-22T13:50:34.296Z,42
2024-04-22T13:51:34.445Z,42
2024-04-22T13:52:34.621Z,41
2024-04-22T13:53:35.189Z,41
2024-04-22T13:54:34.827Z,41
2024-04-22T13:55:35.119Z,41
2024-04-22T13:56:35.201Z,41
2024-04-22T13:57:35.405Z,42
2024-04-22T13:58:35.603Z,42
2024-04-22T13:59:35.669Z,42
2024-04-22T14:00:35.796Z,42
2024-04-22T14:01:35.856Z,42
2024-04-22T14:02:36.040Z,42
2024-04-22T14:03:36.272Z,42
2024-04-22T14:04:36.331Z,42
2024-04-22T14:05:36.947Z,42
2024-04-22T14:06:37.049Z,42
2024-04-22T14:07:37.350Z,42
2024-04-22T14:08:37.411Z,42
2024-04-22T14:09:37.517Z,42
2024-04-22T14:10:37.533Z,42
2024-04-22T14:11:38.098Z,41
2024-04-22T14:12:38.052Z,41
2024-04-22T14:13:38.015Z,41
2024-04-22T14:14:38.631Z,41
2024-04-22T14:15:44.316Z,41
2024-04-22T14:16:38.709Z,41
2024-04-22T14:17:38.879Z,41
2024-04-22T14:18:38.888Z,41
2024-04-22T14:19:38.926Z,41
2024-04-22T14:20:38.900Z,41
2024-04-22T14:21:38.881Z,42
2024-04-22T14:22:39.441Z,42
2024-04-22T14:23:39.450Z,42
2024-04-22T14:24:39.952Z,42
2024-04-22T14:25:40.635Z,42
2024-04-22T14:26:40.985Z,42